sensor_id;sensor_type;location;lat;lon;timestamp;temperature;humidity
33528;DHT22;19861;42.868;74.608;2022-07-06T00:01:46;17.80;99.90
33528;DHT22;19861;42.868;74.608;2022-07-06T00:04:12;17.80;99.90
33528;DHT22;19861;42.868;74.608;2022-07-06T00:06:39;18.00;99.90
33528;DHT22;19861;42.868;74.608;2022-07-06T00:09:05;18.10;99.90
33528;DHT22;19861;42.868;74.608;2022-07-06T00:11:32;18.20;99.90
33528;DHT22;19861;42.868;74.608;2022-07-06T00:13:58;18.30;99.90
33528;DHT22;19861;42.868;74.608;2022-07-06T00:16:25;18.40;99.90
33528;DHT22;19861;42.868;74.608;2022-07-06T00:18:51;18.50;99.90
33528;DHT22;19861;42.868;74.608;2022-07-06T00:21:17;18.70;99.90
33528;DHT22;19861;42.868;74.608;2022-07-06T00:23:44;19.00;99.90
33528;DHT22;19861;42.868;74.608;2022-07-06T00:26:10;19.20;99.90
33528;DHT22;19861;42.868;74.608;2022-07-06T00:28:36;19.70;99.90
33528;DHT22;19861;42.868;74.608;2022-07-06T00:31:02;20.20;99.90
33528;DHT22;19861;42.868;74.608;2022-07-06T00:33:28;20.70;99.90
33528;DHT22;19861;42.868;74.608;2022-07-06T00:35:54;21.10;99.90
33528;DHT22;19861;42.868;74.608;2022-07-06T00:38:21;21.60;99.90
33528;DHT22;19861;42.868;74.608;2022-07-06T00:40:47;21.90;99.90
33528;DHT22;19861;42.868;74.608;2022-07-06T00:43:13;22.30;96.00
33528;DHT22;19861;42.868;74.608;2022-07-06T00:45:39;22.40;95.40
33528;DHT22;19861;42.868;74.608;2022-07-06T00:48:05;23.20;93.30
33528;DHT22;19861;42.868;74.608;2022-07-06T00:50:32;23.70;83.30
33528;DHT22;19861;42.868;74.608;2022-07-06T00:53:04;24.20;75.20
33528;DHT22;19861;42.868;74.608;2022-07-06T00:55:32;24.60;70.00
33528;DHT22;19861;42.868;74.608;2022-07-06T00:58:01;25.50;68.20
33528;DHT22;19861;42.868;74.608;2022-07-06T01:00:29;25.70;65.50
33528;DHT22;19861;42.868;74.608;2022-07-06T01:02:55;26.30;57.60
33528;DHT22;19861;42.868;74.608;2022-07-06T01:05:21;26.40;55.50
33528;DHT22;19861;42.868;74.608;2022-07-06T01:07:49;26.60;56.40
33528;DHT22;19861;42.868;74.608;2022-07-06T01:10:17;27.00;55.80
33528;DHT22;19861;42.868;74.608;2022-07-06T01:12:46;27.50;53.10
33528;DHT22;19861;42.868;74.608;2022-07-06T01:15:15;27.80;52.70
33528;DHT22;19861;42.868;74.608;2022-07-06T01:17:42;28.60;50.90
33528;DHT22;19861;42.868;74.608;2022-07-06T01:22:42;29.10;49.90
33528;DHT22;19861;42.868;74.608;2022-07-06T01:25:08;29.30;50.00
33528;DHT22;19861;42.868;74.608;2022-07-06T01:27:36;29.90;49.30
33528;DHT22;19861;42.868;74.608;2022-07-06T01:30:06;30.80;47.40
33528;DHT22;19861;42.868;74.608;2022-07-06T01:32:32;30.80;47.40
33528;DHT22;19861;42.868;74.608;2022-07-06T01:34:59;30.60;45.80
33528;DHT22;19861;42.868;74.608;2022-07-06T01:37:25;30.10;45.50
33528;DHT22;19861;42.868;74.608;2022-07-06T01:39:51;30.00;46.30
33528;DHT22;19861;42.868;74.608;2022-07-06T01:42:17;29.90;46.10
33528;DHT22;19861;42.868;74.608;2022-07-06T01:44:44;29.80;46.20
33528;DHT22;19861;42.868;74.608;2022-07-06T01:47:24;29.40;46.30
33528;DHT22;19861;42.868;74.608;2022-07-06T01:49:51;29.40;48.00
33528;DHT22;19861;42.868;74.608;2022-07-06T01:52:17;29.70;45.20
33528;DHT22;19861;42.868;74.608;2022-07-06T01:54:43;29.60;46.70
33528;DHT22;19861;42.868;74.608;2022-07-06T01:57:10;30.10;45.10
33528;DHT22;19861;42.868;74.608;2022-07-06T01:59:36;30.30;43.30
33528;DHT22;19861;42.868;74.608;2022-07-06T02:02:02;29.80;43.40
33528;DHT22;19861;42.868;74.608;2022-07-06T02:04:28;28.50;44.70
33528;DHT22;19861;42.868;74.608;2022-07-06T02:06:54;28.40;45.30
33528;DHT22;19861;42.868;74.608;2022-07-06T02:09:20;28.60;45.80
33528;DHT22;19861;42.868;74.608;2022-07-06T02:11:46;28.00;49.60
33528;DHT22;19861;42.868;74.608;2022-07-06T02:14:12;27.80;50.40
33528;DHT22;19861;42.868;74.608;2022-07-06T02:16:38;27.60;49.40
33528;DHT22;19861;42.868;74.608;2022-07-06T02:19:04;27.90;49.30
33528;DHT22;19861;42.868;74.608;2022-07-06T02:21:31;27.50;50.80
33528;DHT22;19861;42.868;74.608;2022-07-06T02:24:00;26.70;52.90
33528;DHT22;19861;42.868;74.608;2022-07-06T02:26:26;26.70;52.10
33528;DHT22;19861;42.868;74.608;2022-07-06T02:28:52;26.80;53.80
33528;DHT22;19861;42.868;74.608;2022-07-06T02:31:18;28.30;53.00
33528;DHT22;19861;42.868;74.608;2022-07-06T02:33:44;28.50;50.50
33528;DHT22;19861;42.868;74.608;2022-07-06T02:36:10;28.60;49.80
33528;DHT22;19861;42.868;74.608;2022-07-06T02:38:36;28.20;49.60
33528;DHT22;19861;42.868;74.608;2022-07-06T02:41:02;28.00;49.50
33528;DHT22;19861;42.868;74.608;2022-07-06T02:43:31;28.40;50.50
33528;DHT22;19861;42.868;74.608;2022-07-06T02:45:57;28.30;47.70
33528;DHT22;19861;42.868;74.608;2022-07-06T02:48:23;28.40;47.20
33528;DHT22;19861;42.868;74.608;2022-07-06T02:50:49;28.40;47.30
33528;DHT22;19861;42.868;74.608;2022-07-06T02:53:18;28.70;45.80
33528;DHT22;19861;42.868;74.608;2022-07-06T02:55:44;28.20;46.60
33528;DHT22;19861;42.868;74.608;2022-07-06T02:58:10;28.70;45.30
33528;DHT22;19861;42.868;74.608;2022-07-06T03:00:36;28.80;45.90
33528;DHT22;19861;42.868;74.608;2022-07-06T03:03:02;28.40;44.20
33528;DHT22;19861;42.868;74.608;2022-07-06T03:05:28;28.80;45.40
33528;DHT22;19861;42.868;74.608;2022-07-06T03:07:54;28.60;43.50
33528;DHT22;19861;42.868;74.608;2022-07-06T03:10:20;28.70;43.90
33528;DHT22;19861;42.868;74.608;2022-07-06T03:12:46;28.70;43.30
33528;DHT22;19861;42.868;74.608;2022-07-06T03:15:12;28.40;43.50
33528;DHT22;19861;42.868;74.608;2022-07-06T03:17:38;28.70;43.40
33528;DHT22;19861;42.868;74.608;2022-07-06T03:20:05;28.80;42.60
33528;DHT22;19861;42.868;74.608;2022-07-06T03:22:31;28.30;44.60
33528;DHT22;19861;42.868;74.608;2022-07-06T03:24:58;28.60;44.60
33528;DHT22;19861;42.868;74.608;2022-07-06T03:27:26;28.20;45.00
33528;DHT22;19861;42.868;74.608;2022-07-06T03:29:52;28.60;43.50
33528;DHT22;19861;42.868;74.608;2022-07-06T03:32:18;27.90;45.30
33528;DHT22;19861;42.868;74.608;2022-07-06T03:34:44;28.00;44.60
33528;DHT22;19861;42.868;74.608;2022-07-06T03:39:46;28.60;44.50
33528;DHT22;19861;42.868;74.608;2022-07-06T03:42:12;29.00;43.80
33528;DHT22;19861;42.868;74.608;2022-07-06T03:44:38;29.60;43.50
33528;DHT22;19861;42.868;74.608;2022-07-06T03:47:04;28.90;44.40
33528;DHT22;19861;42.868;74.608;2022-07-06T03:49:30;28.90;44.40
33528;DHT22;19861;42.868;74.608;2022-07-06T03:51:56;28.50;45.50
33528;DHT22;19861;42.868;74.608;2022-07-06T03:54:22;29.20;44.60
33528;DHT22;19861;42.868;74.608;2022-07-06T03:56:48;29.30;43.30
33528;DHT22;19861;42.868;74.608;2022-07-06T03:59:14;28.90;44.20
33528;DHT22;19861;42.868;74.608;2022-07-06T04:01:40;28.90;45.00
33528;DHT22;19861;42.868;74.608;2022-07-06T04:04:06;28.20;44.80
33528;DHT22;19861;42.868;74.608;2022-07-06T04:06:33;27.60;47.90
33528;DHT22;19861;42.868;74.608;2022-07-06T04:09:00;26.90;47.10
33528;DHT22;19861;42.868;74.608;2022-07-06T04:11:26;26.90;47.50
33528;DHT22;19861;42.868;74.608;2022-07-06T04:13:52;26.90;48.30
33528;DHT22;19861;42.868;74.608;2022-07-06T04:16:20;26.10;48.60
33528;DHT22;19861;42.868;74.608;2022-07-06T04:18:46;26.20;49.00
33528;DHT22;19861;42.868;74.608;2022-07-06T04:21:12;26.30;49.90
33528;DHT22;19861;42.868;74.608;2022-07-06T04:23:38;25.90;48.20
33528;DHT22;19861;42.868;74.608;2022-07-06T04:26:04;26.30;48.30
33528;DHT22;19861;42.868;74.608;2022-07-06T04:28:30;26.50;48.50
33528;DHT22;19861;42.868;74.608;2022-07-06T04:30:56;26.20;48.80
33528;DHT22;19861;42.868;74.608;2022-07-06T04:33:23;26.00;48.80
33528;DHT22;19861;42.868;74.608;2022-07-06T04:35:49;26.40;48.80
33528;DHT22;19861;42.868;74.608;2022-07-06T04:38:15;26.80;48.70
33528;DHT22;19861;42.868;74.608;2022-07-06T04:40:41;27.00;47.40
33528;DHT22;19861;42.868;74.608;2022-07-06T04:43:07;27.10;47.80
33528;DHT22;19861;42.868;74.608;2022-07-06T04:45:33;27.20;47.50
33528;DHT22;19861;42.868;74.608;2022-07-06T04:47:59;27.20;47.90
33528;DHT22;19861;42.868;74.608;2022-07-06T04:50:25;27.40;46.90
33528;DHT22;19861;42.868;74.608;2022-07-06T04:52:51;27.50;46.60
33528;DHT22;19861;42.868;74.608;2022-07-06T04:55:17;27.20;45.70
33528;DHT22;19861;42.868;74.608;2022-07-06T04:57:43;26.70;45.90
33528;DHT22;19861;42.868;74.608;2022-07-06T05:00:10;26.40;46.60
33528;DHT22;19861;42.868;74.608;2022-07-06T05:02:36;26.20;46.90
33528;DHT22;19861;42.868;74.608;2022-07-06T05:05:03;26.40;48.40
33528;DHT22;19861;42.868;74.608;2022-07-06T05:07:29;26.70;46.50
33528;DHT22;19861;42.868;74.608;2022-07-06T05:09:56;26.50;46.70
33528;DHT22;19861;42.868;74.608;2022-07-06T05:12:22;26.40;47.20
33528;DHT22;19861;42.868;74.608;2022-07-06T05:14:49;26.20;47.20
33528;DHT22;19861;42.868;74.608;2022-07-06T05:17:15;26.30;48.70
33528;DHT22;19861;42.868;74.608;2022-07-06T05:19:41;26.60;48.30
33528;DHT22;19861;42.868;74.608;2022-07-06T05:22:07;26.70;48.60
33528;DHT22;19861;42.868;74.608;2022-07-06T05:24:33;26.90;46.70
33528;DHT22;19861;42.868;74.608;2022-07-06T05:26:59;27.10;45.80
33528;DHT22;19861;42.868;74.608;2022-07-06T05:29:25;26.90;45.70
33528;DHT22;19861;42.868;74.608;2022-07-06T05:31:51;26.60;46.50
33528;DHT22;19861;42.868;74.608;2022-07-06T05:34:17;26.70;47.30
33528;DHT22;19861;42.868;74.608;2022-07-06T05:36:43;27.00;44.20
33528;DHT22;19861;42.868;74.608;2022-07-06T05:39:09;27.00;44.10
33528;DHT22;19861;42.868;74.608;2022-07-06T05:41:35;26.70;45.60
33528;DHT22;19861;42.868;74.608;2022-07-06T05:44:01;26.80;45.60
33528;DHT22;19861;42.868;74.608;2022-07-06T05:46:30;26.50;45.10
33528;DHT22;19861;42.868;74.608;2022-07-06T05:48:56;26.30;46.00
33528;DHT22;19861;42.868;74.608;2022-07-06T05:51:40;26.50;47.40
33528;DHT22;19861;42.868;74.608;2022-07-06T05:54:06;27.00;43.80
33528;DHT22;19861;42.868;74.608;2022-07-06T05:56:32;26.90;44.40
33528;DHT22;19861;42.868;74.608;2022-07-06T05:58:59;27.20;43.80
33528;DHT22;19861;42.868;74.608;2022-07-06T06:01:25;27.10;44.40
33528;DHT22;19861;42.868;74.608;2022-07-06T06:03:51;27.10;43.80
33528;DHT22;19861;42.868;74.608;2022-07-06T06:06:17;27.20;42.90
33528;DHT22;19861;42.868;74.608;2022-07-06T06:08:43;27.00;43.20
33528;DHT22;19861;42.868;74.608;2022-07-06T06:11:09;27.00;44.70
33528;DHT22;19861;42.868;74.608;2022-07-06T06:13:35;27.10;42.90
33528;DHT22;19861;42.868;74.608;2022-07-06T06:16:01;27.60;42.20
33528;DHT22;19861;42.868;74.608;2022-07-06T06:18:27;27.60;43.60
33528;DHT22;19861;42.868;74.608;2022-07-06T06:20:53;27.50;41.80
33528;DHT22;19861;42.868;74.608;2022-07-06T06:23:20;27.50;44.40
33528;DHT22;19861;42.868;74.608;2022-07-06T06:25:46;27.70;43.80
33528;DHT22;19861;42.868;74.608;2022-07-06T06:28:12;27.80;42.20
33528;DHT22;19861;42.868;74.608;2022-07-06T06:30:38;27.80;42.20
33528;DHT22;19861;42.868;74.608;2022-07-06T06:35:31;27.40;42.50
33528;DHT22;19861;42.868;74.608;2022-07-06T06:37:57;27.20;44.40
33528;DHT22;19861;42.868;74.608;2022-07-06T06:40:23;27.60;44.30
33528;DHT22;19861;42.868;74.608;2022-07-06T06:42:49;27.90;42.90
33528;DHT22;19861;42.868;74.608;2022-07-06T06:45:15;27.60;43.20
33528;DHT22;19861;42.868;74.608;2022-07-06T06:47:41;28.00;42.60
33528;DHT22;19861;42.868;74.608;2022-07-06T06:50:08;28.00;42.50
33528;DHT22;19861;42.868;74.608;2022-07-06T06:52:34;27.80;42.50
33528;DHT22;19861;42.868;74.608;2022-07-06T06:55:00;27.60;42.50
33528;DHT22;19861;42.868;74.608;2022-07-06T06:57:26;27.80;42.00
33528;DHT22;19861;42.868;74.608;2022-07-06T06:59:54;27.60;42.20
33528;DHT22;19861;42.868;74.608;2022-07-06T07:02:20;27.70;42.70
33528;DHT22;19861;42.868;74.608;2022-07-06T07:04:46;27.90;42.70
33528;DHT22;19861;42.868;74.608;2022-07-06T07:07:12;27.90;42.20
33528;DHT22;19861;42.868;74.608;2022-07-06T07:09:38;27.80;42.40
33528;DHT22;19861;42.868;74.608;2022-07-06T07:12:05;27.70;43.30
33528;DHT22;19861;42.868;74.608;2022-07-06T07:14:31;27.90;42.70
33528;DHT22;19861;42.868;74.608;2022-07-06T07:16:57;28.00;42.10
33528;DHT22;19861;42.868;74.608;2022-07-06T07:19:24;28.10;41.80
33528;DHT22;19861;42.868;74.608;2022-07-06T07:21:53;28.10;41.90
33528;DHT22;19861;42.868;74.608;2022-07-06T07:24:19;28.30;41.60
33528;DHT22;19861;42.868;74.608;2022-07-06T07:26:45;28.50;42.50
33528;DHT22;19861;42.868;74.608;2022-07-06T07:29:17;28.50;42.20
33528;DHT22;19861;42.868;74.608;2022-07-06T07:31:43;28.50;43.20
33528;DHT22;19861;42.868;74.608;2022-07-06T07:34:09;28.60;42.00
33528;DHT22;19861;42.868;74.608;2022-07-06T07:36:35;28.70;41.60
33528;DHT22;19861;42.868;74.608;2022-07-06T07:39:01;28.60;41.40
33528;DHT22;19861;42.868;74.608;2022-07-06T07:41:28;28.30;41.80
33528;DHT22;19861;42.868;74.608;2022-07-06T07:43:54;28.10;43.10
33528;DHT22;19861;42.868;74.608;2022-07-06T07:46:20;28.40;42.80
33528;DHT22;19861;42.868;74.608;2022-07-06T07:48:46;28.10;43.40
33528;DHT22;19861;42.868;74.608;2022-07-06T07:51:12;28.50;43.10
33528;DHT22;19861;42.868;74.608;2022-07-06T07:53:38;28.80;42.40
33528;DHT22;19861;42.868;74.608;2022-07-06T07:56:04;29.20;42.30
33528;DHT22;19861;42.868;74.608;2022-07-06T07:58:30;29.20;42.20
33528;DHT22;19861;42.868;74.608;2022-07-06T08:00:57;28.90;42.80
33528;DHT22;19861;42.868;74.608;2022-07-06T08:03:23;29.10;43.20
33528;DHT22;19861;42.868;74.608;2022-07-06T08:05:49;29.30;42.20
33528;DHT22;19861;42.868;74.608;2022-07-06T08:08:16;29.20;42.00
33528;DHT22;19861;42.868;74.608;2022-07-06T08:10:42;29.10;42.30
33528;DHT22;19861;42.868;74.608;2022-07-06T08:13:08;28.80;41.90
33528;DHT22;19861;42.868;74.608;2022-07-06T08:15:36;29.10;42.00
33528;DHT22;19861;42.868;74.608;2022-07-06T08:18:03;29.20;41.30
33528;DHT22;19861;42.868;74.608;2022-07-06T08:20:29;29.10;41.30
33528;DHT22;19861;42.868;74.608;2022-07-06T08:22:56;29.20;41.80
33528;DHT22;19861;42.868;74.608;2022-07-06T08:25:22;29.10;41.70
33528;DHT22;19861;42.868;74.608;2022-07-06T08:27:48;29.20;41.50
33528;DHT22;19861;42.868;74.608;2022-07-06T08:30:14;28.70;42.60
33528;DHT22;19861;42.868;74.608;2022-07-06T08:32:43;29.20;40.50
33528;DHT22;19861;42.868;74.608;2022-07-06T08:35:10;29.30;39.70
33528;DHT22;19861;42.868;74.608;2022-07-06T08:37:36;29.20;40.20
33528;DHT22;19861;42.868;74.608;2022-07-06T08:40:04;29.20;40.00
33528;DHT22;19861;42.868;74.608;2022-07-06T08:42:32;29.20;40.20
33528;DHT22;19861;42.868;74.608;2022-07-06T08:45:05;29.50;40.30
33528;DHT22;19861;42.868;74.608;2022-07-06T08:47:31;29.70;40.40
33528;DHT22;19861;42.868;74.608;2022-07-06T08:49:58;29.70;38.80
33528;DHT22;19861;42.868;74.608;2022-07-06T08:52:47;29.60;38.30
33528;DHT22;19861;42.868;74.608;2022-07-06T08:55:14;29.20;41.40
33528;DHT22;19861;42.868;74.608;2022-07-06T08:57:41;29.50;41.00
33528;DHT22;19861;42.868;74.608;2022-07-06T09:00:09;29.40;40.60
33528;DHT22;19861;42.868;74.608;2022-07-06T09:02:36;29.50;40.40
33528;DHT22;19861;42.868;74.608;2022-07-06T09:05:03;29.60;40.90
33528;DHT22;19861;42.868;74.608;2022-07-06T09:07:30;29.70;40.90
33528;DHT22;19861;42.868;74.608;2022-07-06T09:09:59;29.80;40.60
33528;DHT22;19861;42.868;74.608;2022-07-06T09:12:28;29.80;40.40
33528;DHT22;19861;42.868;74.608;2022-07-06T09:14:55;29.80;40.10
33528;DHT22;19861;42.868;74.608;2022-07-06T09:17:25;29.50;42.00
33528;DHT22;19861;42.868;74.608;2022-07-06T09:19:52;29.50;40.90
33528;DHT22;19861;42.868;74.608;2022-07-06T09:22:30;29.80;40.40
33528;DHT22;19861;42.868;74.608;2022-07-06T09:25:12;30.10;41.20
33528;DHT22;19861;42.868;74.608;2022-07-06T09:27:43;30.20;38.80
33528;DHT22;19861;42.868;74.608;2022-07-06T09:30:12;29.90;40.00
33528;DHT22;19861;42.868;74.608;2022-07-06T09:32:39;29.90;40.40
33528;DHT22;19861;42.868;74.608;2022-07-06T09:35:06;30.10;38.70
33528;DHT22;19861;42.868;74.608;2022-07-06T09:37:32;30.00;39.40
33528;DHT22;19861;42.868;74.608;2022-07-06T09:39:58;30.10;37.50
33528;DHT22;19861;42.868;74.608;2022-07-06T09:42:26;30.00;37.80
33528;DHT22;19861;42.868;74.608;2022-07-06T09:44:52;30.10;38.50
33528;DHT22;19861;42.868;74.608;2022-07-06T09:47:19;30.10;38.50
33528;DHT22;19861;42.868;74.608;2022-07-06T09:49:46;30.10;37.80
33528;DHT22;19861;42.868;74.608;2022-07-06T09:52:15;30.10;37.60
33528;DHT22;19861;42.868;74.608;2022-07-06T09:54:41;30.30;37.40
33528;DHT22;19861;42.868;74.608;2022-07-06T09:57:07;30.20;38.50
33528;DHT22;19861;42.868;74.608;2022-07-06T09:59:34;30.10;38.60
33528;DHT22;19861;42.868;74.608;2022-07-06T10:02:03;29.90;38.50
33528;DHT22;19861;42.868;74.608;2022-07-06T10:04:30;30.10;38.00
33528;DHT22;19861;42.868;74.608;2022-07-06T10:06:57;30.20;36.20
33528;DHT22;19861;42.868;74.608;2022-07-06T10:09:25;30.50;34.00
33528;DHT22;19861;42.868;74.608;2022-07-06T10:12:01;30.40;30.70
33528;DHT22;19861;42.868;74.608;2022-07-06T10:14:30;30.50;32.40
33528;DHT22;19861;42.868;74.608;2022-07-06T10:16:58;30.60;32.50
33528;DHT22;19861;42.868;74.608;2022-07-06T10:19:25;30.60;30.80
33528;DHT22;19861;42.868;74.608;2022-07-06T10:21:51;30.50;29.30
33528;DHT22;19861;42.868;74.608;2022-07-06T10:24:20;30.40;29.00
33528;DHT22;19861;42.868;74.608;2022-07-06T10:26:47;30.30;30.00
33528;DHT22;19861;42.868;74.608;2022-07-06T10:29:14;30.50;30.10
33528;DHT22;19861;42.868;74.608;2022-07-06T10:31:48;30.50;30.00
33528;DHT22;19861;42.868;74.608;2022-07-06T10:34:18;30.60;30.20
33528;DHT22;19861;42.868;74.608;2022-07-06T10:36:49;30.40;32.20
33528;DHT22;19861;42.868;74.608;2022-07-06T10:39:16;30.20;33.70
33528;DHT22;19861;42.868;74.608;2022-07-06T10:42:57;30.10;33.60
33528;DHT22;19861;42.868;74.608;2022-07-06T10:53:22;30.10;33.70
33528;DHT22;19861;42.868;74.608;2022-07-06T10:55:51;30.10;33.30
33528;DHT22;19861;42.868;74.608;2022-07-06T10:58:50;30.10;33.30
33528;DHT22;19861;42.868;74.608;2022-07-06T11:01:19;30.30;33.70
33528;DHT22;19861;42.868;74.608;2022-07-06T11:03:50;30.50;32.70
33528;DHT22;19861;42.868;74.608;2022-07-06T11:06:33;30.50;32.00
33528;DHT22;19861;42.868;74.608;2022-07-06T11:09:01;30.30;33.10
33528;DHT22;19861;42.868;74.608;2022-07-06T11:14:08;30.00;33.50
33528;DHT22;19861;42.868;74.608;2022-07-06T11:19:22;29.80;35.20
33528;DHT22;19861;42.868;74.608;2022-07-06T11:21:56;29.70;34.60
33528;DHT22;19861;42.868;74.608;2022-07-06T11:24:34;29.80;35.10
33528;DHT22;19861;42.868;74.608;2022-07-06T11:27:01;30.00;36.30
33528;DHT22;19861;42.868;74.608;2022-07-06T11:29:29;30.00;37.30
33528;DHT22;19861;42.868;74.608;2022-07-06T11:32:00;30.10;38.30
33528;DHT22;19861;42.868;74.608;2022-07-06T11:34:28;29.90;38.40
33528;DHT22;19861;42.868;74.608;2022-07-06T11:36:56;29.90;38.10
33528;DHT22;19861;42.868;74.608;2022-07-06T11:39:27;29.80;39.00
33528;DHT22;19861;42.868;74.608;2022-07-06T11:41:58;30.10;38.70
33528;DHT22;19861;42.868;74.608;2022-07-06T11:44:24;30.30;38.80
33528;DHT22;19861;42.868;74.608;2022-07-06T11:46:51;30.20;38.70
33528;DHT22;19861;42.868;74.608;2022-07-06T11:49:17;30.20;38.70
33528;DHT22;19861;42.868;74.608;2022-07-06T11:51:45;30.20;38.80
33528;DHT22;19861;42.868;74.608;2022-07-06T11:54:16;29.90;39.60
33528;DHT22;19861;42.868;74.608;2022-07-06T11:57:01;29.90;38.80
33528;DHT22;19861;42.868;74.608;2022-07-06T11:59:33;29.70;38.80
33528;DHT22;19861;42.868;74.608;2022-07-06T12:02:08;29.80;37.60
33528;DHT22;19861;42.868;74.608;2022-07-06T12:04:36;30.10;36.70
33528;DHT22;19861;42.868;74.608;2022-07-06T12:07:05;30.10;36.20
33528;DHT22;19861;42.868;74.608;2022-07-06T12:09:32;29.80;37.20
33528;DHT22;19861;42.868;74.608;2022-07-06T12:11:59;29.70;37.90
33528;DHT22;19861;42.868;74.608;2022-07-06T12:14:29;29.80;37.80
33528;DHT22;19861;42.868;74.608;2022-07-06T12:16:56;29.90;37.80
33528;DHT22;19861;42.868;74.608;2022-07-06T12:19:22;29.70;37.70
33528;DHT22;19861;42.868;74.608;2022-07-06T12:21:50;29.70;38.40
33528;DHT22;19861;42.868;74.608;2022-07-06T12:24:21;29.80;38.50
33528;DHT22;19861;42.868;74.608;2022-07-06T12:26:49;29.80;38.90
33528;DHT22;19861;42.868;74.608;2022-07-06T12:29:16;29.80;38.30
33528;DHT22;19861;42.868;74.608;2022-07-06T12:31:55;29.90;38.40
33528;DHT22;19861;42.868;74.608;2022-07-06T12:34:23;29.90;37.00
33528;DHT22;19861;42.868;74.608;2022-07-06T12:36:55;29.90;38.10
33528;DHT22;19861;42.868;74.608;2022-07-06T12:39:26;29.80;36.20
33528;DHT22;19861;42.868;74.608;2022-07-06T12:42:05;29.70;36.10
33528;DHT22;19861;42.868;74.608;2022-07-06T12:44:32;29.80;35.80
33528;DHT22;19861;42.868;74.608;2022-07-06T12:47:03;29.80;36.60
33528;DHT22;19861;42.868;74.608;2022-07-06T12:49:29;29.80;36.00
33528;DHT22;19861;42.868;74.608;2022-07-06T12:51:57;29.70;35.90
33528;DHT22;19861;42.868;74.608;2022-07-06T12:54:25;29.60;36.80
33528;DHT22;19861;42.868;74.608;2022-07-06T12:57:02;29.70;36.70
33528;DHT22;19861;42.868;74.608;2022-07-06T12:59:29;29.60;35.00
33528;DHT22;19861;42.868;74.608;2022-07-06T13:01:56;29.50;36.70
33528;DHT22;19861;42.868;74.608;2022-07-06T13:04:29;29.40;37.00
33528;DHT22;19861;42.868;74.608;2022-07-06T13:06:55;29.60;37.70
33528;DHT22;19861;42.868;74.608;2022-07-06T13:09:22;29.70;38.10
33528;DHT22;19861;42.868;74.608;2022-07-06T13:11:48;29.70;38.10
33528;DHT22;19861;42.868;74.608;2022-07-06T13:14:15;29.80;38.40
33528;DHT22;19861;42.868;74.608;2022-07-06T13:16:43;29.80;38.10
33528;DHT22;19861;42.868;74.608;2022-07-06T13:19:09;29.80;38.50
33528;DHT22;19861;42.868;74.608;2022-07-06T13:21:35;29.80;38.30
33528;DHT22;19861;42.868;74.608;2022-07-06T13:24:02;29.80;38.60
33528;DHT22;19861;42.868;74.608;2022-07-06T13:26:29;29.70;38.20
33528;DHT22;19861;42.868;74.608;2022-07-06T13:29:03;29.60;37.70
33528;DHT22;19861;42.868;74.608;2022-07-06T13:31:30;29.60;37.60
33528;DHT22;19861;42.868;74.608;2022-07-06T13:33:56;29.60;37.70
33528;DHT22;19861;42.868;74.608;2022-07-06T13:36:25;29.60;37.80
33528;DHT22;19861;42.868;74.608;2022-07-06T13:38:51;29.60;37.90
33528;DHT22;19861;42.868;74.608;2022-07-06T13:41:17;29.30;38.70
33528;DHT22;19861;42.868;74.608;2022-07-06T13:43:44;29.00;39.60
33528;DHT22;19861;42.868;74.608;2022-07-06T13:46:10;29.00;38.40
33528;DHT22;19861;42.868;74.608;2022-07-06T13:48:39;29.10;38.70
33528;DHT22;19861;42.868;74.608;2022-07-06T13:51:05;29.00;39.30
33528;DHT22;19861;42.868;74.608;2022-07-06T13:53:31;29.00;39.60
33528;DHT22;19861;42.868;74.608;2022-07-06T13:55:57;29.10;38.70
33528;DHT22;19861;42.868;74.608;2022-07-06T13:58:24;29.00;39.10
33528;DHT22;19861;42.868;74.608;2022-07-06T14:00:50;28.90;38.80
33528;DHT22;19861;42.868;74.608;2022-07-06T14:03:16;28.90;39.40
33528;DHT22;19861;42.868;74.608;2022-07-06T14:05:42;28.90;39.30
33528;DHT22;19861;42.868;74.608;2022-07-06T14:08:08;28.80;39.80
33528;DHT22;19861;42.868;74.608;2022-07-06T14:10:34;28.80;39.50
33528;DHT22;19861;42.868;74.608;2022-07-06T14:13:00;28.70;39.90
33528;DHT22;19861;42.868;74.608;2022-07-06T14:15:26;28.70;40.30
33528;DHT22;19861;42.868;74.608;2022-07-06T14:17:52;28.70;40.90
33528;DHT22;19861;42.868;74.608;2022-07-06T14:20:18;28.70;41.20
33528;DHT22;19861;42.868;74.608;2022-07-06T14:22:44;28.60;40.90
33528;DHT22;19861;42.868;74.608;2022-07-06T14:25:10;28.60;40.90
33528;DHT22;19861;42.868;74.608;2022-07-06T14:27:37;28.60;41.00
33528;DHT22;19861;42.868;74.608;2022-07-06T14:30:03;28.40;41.50
33528;DHT22;19861;42.868;74.608;2022-07-06T14:32:29;28.20;41.90
33528;DHT22;19861;42.868;74.608;2022-07-06T14:34:55;28.10;42.00
33528;DHT22;19861;42.868;74.608;2022-07-06T14:37:21;27.90;42.20
33528;DHT22;19861;42.868;74.608;2022-07-06T14:39:47;27.90;42.00
33528;DHT22;19861;42.868;74.608;2022-07-06T14:42:14;27.80;41.80
33528;DHT22;19861;42.868;74.608;2022-07-06T14:44:40;27.80;41.70
33528;DHT22;19861;42.868;74.608;2022-07-06T14:47:06;27.70;41.90
33528;DHT22;19861;42.868;74.608;2022-07-06T14:49:32;27.70;41.90
33528;DHT22;19861;42.868;74.608;2022-07-06T14:51:59;27.60;41.50
33528;DHT22;19861;42.868;74.608;2022-07-06T14:54:25;27.70;41.80
33528;DHT22;19861;42.868;74.608;2022-07-06T14:56:51;27.50;41.40
33528;DHT22;19861;42.868;74.608;2022-07-06T14:59:18;27.50;41.40
33528;DHT22;19861;42.868;74.608;2022-07-06T15:01:44;27.40;41.20
33528;DHT22;19861;42.868;74.608;2022-07-06T15:04:10;27.40;41.30
33528;DHT22;19861;42.868;74.608;2022-07-06T15:06:37;27.30;41.00
33528;DHT22;19861;42.868;74.608;2022-07-06T15:09:03;27.10;41.10
33528;DHT22;19861;42.868;74.608;2022-07-06T15:11:30;27.00;41.20
33528;DHT22;19861;42.868;74.608;2022-07-06T15:13:57;27.00;40.90
33528;DHT22;19861;42.868;74.608;2022-07-06T15:16:23;26.90;40.80
33528;DHT22;19861;42.868;74.608;2022-07-06T15:18:50;26.80;40.80
33528;DHT22;19861;42.868;74.608;2022-07-06T15:21:16;26.70;40.80
33528;DHT22;19861;42.868;74.608;2022-07-06T15:23:42;26.70;40.60
33528;DHT22;19861;42.868;74.608;2022-07-06T15:26:08;26.70;40.30
33528;DHT22;19861;42.868;74.608;2022-07-06T15:28:34;26.70;40.10
33528;DHT22;19861;42.868;74.608;2022-07-06T15:31:00;26.60;39.90
33528;DHT22;19861;42.868;74.608;2022-07-06T15:33:27;26.60;39.20
33528;DHT22;19861;42.868;74.608;2022-07-06T15:35:53;26.50;39.20
33528;DHT22;19861;42.868;74.608;2022-07-06T15:38:19;26.30;39.60